Tiempo atmosférico en la estación meteorológica de Carrión De Los Condes, Palencia (830 m.)



Fecha
DESCASC
Temp. máxima en grados centígrados (hora)
DESCASC
Temp. mínima en grados centígrados (hora)
DESCASC
Temp. media en grados centígrados
DESCASC
Racha de viento máxima en m/sg (hora)
DESCASC
Velocidad máxima media en intervalos de 10 minutos(hora)
DESCASC
Precipitaciones diarias en mm
DESCASC
Precipitaciones de 00:00 a 06:00 en mm
DESCASC
Precipitaciones de 06:00 a 12:00 en mm
DESCASC
Precipitaciones de 12:00 a 18:00 en mm
DESCASC
Precipitaciones de 18:00 a 24:00 en mm
DESCASC
13-02-2020 14.2 (16:30) 4.2 (03:30) 9.2 11.39 (16:40) 4.72 (16:50) 0 0 0 0 0
12-02-2020 13.9 (15:50) 4.9 (23:59) 9.4 5.28 (18:30) 2.78 (18:30) 0 0 0 0 0
11-02-2020 14.1 (14:40) 5.8 (04:40) 10 6.11 (16:10) 3.06 (16:00) 0 0 0 0 0
10-02-2020 15.7 (15:50) 7.3 (00:00) 11.5 12.22 (06:20) 5.83 (03:40) 0 0 0 0 0
09-02-2020 11.5 (16:20) 0.2 (00:00) 5.9 8.61 (17:40) 3.89 (17:30) 0 0 0 0 0
08-02-2020 11.7 (17:10) 2 (00:00) 6.8 7.22 (12:00) 3.61 (12:20) 1.4 0 1.2 0 0.2
07-02-2020 12.5 (16:00) 0 (00:00) 6.3 13.89 (10:50) 2.5 (15:00) 0 0 0 0 0
06-02-2020 13.3 (15:30) -2.6 (-00:0) 5.4 4.44 (14:50) 2.22 (14:50) 0 0 0 0 0
05-02-2020 11.2 (16:00) 0.5 (00:00) 5.8 8.89 (11:00) 3.89 (12:20) 0 0 0 0 0
04-02-2020 14 (16:20) 3.6 (00:00) 8.8 6.39 (22:00) 3.33 (22:00) 0 0 0 0 0
03-02-2020 15.8 (15:50) 3.9 (05:00) 9.9 7.78 (17:40) 3.89 (17:30) 0.2 0 0.2 0 0
02-02-2020 16.3 (16:10) 6.4 (00:00) 11.3 8.33 (11:40) 3.89 (11:10) 0 0 0 0 0
01-02-2020 15.9 (16:00) 9.6 (00:00) 12.8 12.22 (02:50) 5.56 (02:10) 0.4 0.4 0 0 0
31-01-2020 11.8 (15:50) 9 (00:00) 10.4 9.17 (21:40) 4.72 (21:30) 2.4 0.2 0.2 0.2 1.8
30-01-2020 10.6 (12:20) 7.3 (00:00) 9 10.83 (14:10) 5 (16:00) 1.2 0.2 0.2 0 0.8
29-01-2020 10 (15:30) 8.5 (00:00) 9.3 10.28 (15:30) 5 (15:00) 4.4 0 0.6 3 0.8
28-01-2020 10.1 (16:00) 5.8 (00:00) 8 13.61 (01:20) 6.11 (00:10) 0.4 0.2 0 0 0.2
27-01-2020 8.8 (17:00) 3.8 (00:00) 6.3 14.44 (14:50) 6.67 (10:50) 1 0 0.4 0.6 0
26-01-2020 3.9 (23:40) -1.2 (-00:0) 1.4 6.39 (17:30) 3.33 (17:00) 0 0 0 0 0
25-01-2020 7.5 (15:40) 2.3 (00:00) 4.9 4.72 (08:20) 2.5 (09:10) 0.4 0 0.2 0 0.2
24-01-2020 8.2 (15:10) 2.2 (00:00) 5.2 3.89 (08:50) 2.22 (08:10) 0 0 0 0 0
23-01-2020 7.6 (16:40) -0.8 (-00:0) 3.4 7.22 (09:40) 3.33 (09:20) 0 0 0 0 0
22-01-2020 9.2 (15:30) 2.2 (00:00) 5.7 16.11 (00:20) 7.5 (00:20) 1 0.4 0.6 0 0
21-01-2020 5.1 (13:10) 0.3 (00:00) 2.7 20.28 (13:20) 8.89 (16:50) 0.4 0 0 0.4 0
20-01-2020 2.7 (14:20) -0.2 (00:00) 1.3 23.06 (07:30) 10.83 (06:50) 0 0 0 0 0
19-01-2020 6 (13:10) 0.2 (00:00) 3.1 27.5 (20:10) 12.78 (13:20) 0 0 0 0 0
18-01-2020 9.2 (17:00) 1.3 (00:00) 5.2 12.22 (15:50) 5.56 (15:20) 5 0 0 5 0

Gráficas

Temp. máximas Temp. mínimas Temp. medias Precipitaciones Rachas de viento máximas Velocidades máximas media en intervalos de 10 minutos

Datos horarios

Fecha y hora oficial Temperatura (ºC) Velocidad del viento (km/h) Dirección del viento Racha (km/h) Dirección de racha Precipitación (mm) Presión (hPa) Tendencia (hPa) Humedad (%)
2020-02-16 23:00:00 9.7 15 Sudoeste 39 Sudoeste 0 929.5 0.4 83
2020-02-16 22:00:00 10 17 Sudoeste 39 Sudoeste 0 929.6 1 83
2020-02-16 21:00:00 10.2 20 Sudoeste 43 Sudoeste 0 929.1 1 81
2020-02-16 20:00:00 10.2 17 Sudoeste 41 Sudoeste 0 929.1 1.1 81
2020-02-16 19:00:00 10.6 9 Sudoeste 32 Sudoeste 0 928.6 0.6 80
2020-02-16 18:00:00 12.1 13 Sudoeste 48 Sudoeste 0 928.1 0 74
2020-02-16 17:00:00 13.7 19 Sudoeste 44 Sudoeste 0 928 -0.7 67
2020-02-16 16:00:00 12.9 19 Sudoeste 50 Sudoeste 0 928 -1.6 70
2020-02-16 15:00:00 13 24 Sudoeste 48 Sudoeste 0 928.1 -1.8 67
2020-02-16 14:00:00 13 24 Sudoeste 48 Sudoeste 0 928.7 -1.3 68
2020-02-16 13:00:00 12.4 21 Sudoeste 39 Sudoeste 0 929.6 -0.1 73
2020-02-16 12:00:00 9.9 14 Sudoeste 37 Sudoeste 0 929.9 0.1 82
2020-02-16 11:00:00 8.6 19 Sudoeste 42 Sudoeste 0 930 0.6 89
2020-02-16 10:00:00 8 19 Sudoeste 39 Sudoeste 0 929.7 0.2 99
2020-02-16 09:00:00 7.2 14 Sudoeste 36 Sudoeste 0 929.8 0.5 --
2020-02-16 08:00:00 6.7 15 Sudoeste 28 Sudoeste 0 929.4 0 --
2020-02-16 07:00:00 6.3 8 Sudoeste 15 Sudoeste 0 929.5 -0.3 --
2020-02-16 06:00:00 5 5 Sur 11 Sur 0 929.3 -0.7 --
2020-02-16 05:00:00 3.2 2 Sur 6 Sudoeste 0 929.4 -0.9 --
2020-02-16 04:00:00 2 0 Calma 6 Noroeste 0 929.8 -0.6 --
2020-02-16 03:00:00 2.3 2 Oeste 13 Este 0 930 -0.4 --
2020-02-16 02:00:00 2.9 0 Calma 14 Norte 0 930.3 0.1 --
2020-02-16 01:00:00 3 0 Calma 8 Noroeste 0 930.4 -0.4 --
2020-02-16 00:00:00 2.6 0 Calma 4 Oeste 0 930.4 -0.3 100
2020-02-15 23:00:00 3.1 0 Calma 4 Sur 0 930.2 -0.2 98
2020-02-15 22:00:00 4.1 3 Noroeste 5 Oeste 0 930.8 0.6 98
2020-02-15 21:00:00 5.1 0 Calma 5 Sudoeste 0 930.7 1.1 92
2020-02-15 20:00:00 6.5 0 Calma 15 Nordeste 0 930.4 1 88
2020-02-15 19:00:00 8.2 2 Noroeste 9 Oeste 0 930.2 1.1 86
2020-02-15 18:00:00 9.9 4 Sudoeste 17 Sudoeste 0 929.6 0.1 81
2020-02-15 17:00:00 10.6 6 Sudoeste 21 Sudoeste 0 929.4 -0.8 80
2020-02-15 16:00:00 11 8 Sudoeste 19 Sudoeste 0 929.1 -1.5 78
2020-02-15 15:00:00 11.2 7 Sudoeste 21 Sudoeste 0 929.5 -1.6 75
2020-02-15 14:00:00 10.3 9 Sudoeste 21 Sudoeste 0 930.2 -0.9 80
2020-02-15 13:00:00 8.9 5 Sur 16 Sudoeste 0 930.6 0.2 87
2020-02-15 12:00:00 6.7 6 Sudoeste 12 Sudoeste 0 931.1 1.2 --
2020-02-15 11:00:00 4.9 3 Sur 15 Este 0 931.1 1.6 --
2020-02-15 10:00:00 3.4 0 Calma 6 Oeste 0 930.4 0.9 --
2020-02-15 09:00:00 2.3 0 Calma 9 Sudoeste 0 929.9 0.8 --
2020-02-15 08:00:00 2.9 4 Sur 9 Sur 0 929.5 0.6 --
2020-02-15 07:00:00 2.9 4 Sudoeste 10 Sur 0 929.5 -0.2 --
2020-02-15 06:00:00 3.9 4 Sur 7 Sudoeste 0 929.1 -0.6 --
2020-02-15 05:00:00 3.7 2 Sudeste 13 Este 0 928.9 -0.9 --
2020-02-15 04:00:00 2.6 0 Calma 4 Noroeste 0 929.7 -0.2 --
2020-02-15 03:00:00 1.5 2 Oeste 4 Noroeste 0 929.7 -0.4 --
2020-02-15 02:00:00 0.6 0 Calma 5 Noroeste 0 929.8 -0.6 --
2020-02-15 01:00:00 0.5 0 Calma 3 Norte 0 929.9 -0.5 --
2020-02-15 00:00:00 1.1 0 Calma 4 Nordeste 0 930.1 -0.3 100
2020-02-14 23:00:00 1.7 0 Calma 4 Sudeste 0 930.4 -0.1 99
2020-02-14 22:00:00 2.5 2 Norte 7 Norte 0 930.4 0.3 98
2020-02-14 21:00:00 3.2 0 Calma 3 Norte 0 930.4 0.4 89
2020-02-14 20:00:00 5 0 Calma 4 Este 0 930.5 0.4 86
2020-02-14 19:00:00 7.3 2 Este 5 Este 0 930.1 -0.2 84
2020-02-14 18:00:00 8.5 2 Noroeste 13 Sudoeste 0 930 -0.7 80
2020-02-14 17:00:00 8.4 2 Sur 17 Sur 0 930.1 -0.8 82
2020-02-14 16:00:00 8 7 Sudoeste 13 Sudoeste 0 930.3 -1.1 87
2020-02-14 15:00:00 7.3 3 Sur 10 Sudoeste 0 930.7 -0.9 89
2020-02-14 14:00:00 6.8 5 Sur 12 Sudoeste 0 930.9 -0.7 100
2020-02-14 13:00:00 6.1 3 Noroeste 9 Sudoeste 0 931.4 -0.1 --
2020-02-14 12:00:00 5.5 3 Sur 10 Sur 0 931.6 0.3 --
2020-02-14 11:00:00 4.9 4 Sudeste 13 Este 0 931.6 0.8 --
2020-02-14 10:00:00 4.4 3 Este 6 Este 0 931.5 1.1 --
2020-02-14 09:00:00 4.1 3 Norte 8 Noroeste 0 931.3 1.4 --
2020-02-14 08:00:00 4.3 3 Norte 8 Noroeste 0 930.8 1 --
2020-02-14 07:00:00 4.3 3 Norte 14 Nordeste 0 930.4 0.6 --
2020-02-14 06:00:00 4.6 4 Sudoeste 8 Sur 0 929.9 -0.1 --
2020-02-14 05:00:00 4.3 3 Oeste 9 Sudoeste 0 929.8 -0.2 --
2020-02-14 04:00:00 4.7 3 Sudoeste 9 Sur 0 929.8 -0.1 100
2020-02-14 03:00:00 4.8 3 Oeste 6 Sudoeste 0 930 0.2 100
2020-02-14 02:00:00 3.8 0 Calma 9 Sudoeste 0 930 0.4 99
2020-02-14 01:00:00 4.6 3 Oeste 9 Sudoeste 0 929.9 0.3 97
2020-02-14 00:00:00 5.7 3 Oeste 11 Sudoeste 0 929.8 0.7 95
2020-02-13 23:00:00 6.4 3 Oeste 18 Sudoeste 0 929.6 1 89
2020-02-13 22:00:00 7.3 3 Sudoeste 18 Sudoeste 0 929.6 1.8 86
2020-02-13 21:00:00 9 6 Sudoeste 20 Sudoeste 0 929.1 1.9 82
2020-02-13 20:00:00 10 9 Sudoeste 26 Sudoeste 0 928.6 1.6 80
2020-02-13 19:00:00 10.5 10 Sudoeste 35 Sudoeste 0 927.8 0.8 77
2020-02-13 18:00:00 12.3 13 Sudoeste 35 Sudoeste 0 927.2 0.2 70
2020-02-13 17:00:00 14.1 13 Sudoeste 41 Sudoeste 0 927 -0.5 65
2020-02-13 16:00:00 13.6 17 Sudoeste 34 Sudoeste 0 927 -0.7 68
2020-02-13 15:00:00 13.1 10 Sudoeste 30 Sudoeste 0 927 -0.6 68
2020-02-13 14:00:00 12.4 5 Oeste 23 Sudoeste 0 927.5 0.8 74
2020-02-13 13:00:00 10.6 4 Sudoeste 22 Sur 0 927.7 0.8 84
2020-02-13 12:00:00 9.9 6 Oeste 31 Sudoeste 0 927.6 1 86
2020-02-13 11:00:00 9.5 12 Sudoeste 29 Sudoeste 0 926.7 0.8 90
2020-02-13 10:00:00 8.5 9 Sudoeste 25 Sudoeste 0 926.9 1.3 99
2020-02-13 09:00:00 8 7 Sudoeste 24 Sudoeste 0 926.6 1 100
2020-02-13 08:00:00 8.1 7 Sudoeste 19 Sudoeste 0 925.9 0.9 --
2020-02-13 07:00:00 7.9 6 Sudoeste 21 Sudoeste 0 925.6 0.6 --
2020-02-13 06:00:00 7.8 8 Sudoeste 23 Sudoeste 0 925.6 0.2 --
2020-02-13 05:00:00 7.6 9 Sudoeste 19 Sudoeste 0 925 -0.9 --
2020-02-13 04:00:00 5.8 6 Sudoeste 13 Sudoeste 0 925 -1 100
2020-02-13 03:00:00 4.6 3 Sudoeste 6 Sur 0 925.4 -1 100
2020-02-13 02:00:00 4.7 3 Sudoeste 8 Sudoeste 0 925.9 -0.4 99
2020-02-13 01:00:00 4.6 2 Sur 4 Sur 0 926 -0.6 99
2020-02-13 00:00:00 4.9 2 Noroeste 4 Noroeste 0 926.4 0.3 98
2020-02-12 23:00:00 5.8 0 Calma 4 Sudeste 0 926.3 -0.1 97
2020-02-12 22:00:00 6.2 2 Norte 4 Norte 0 926.6 0.1 91
2020-02-12 21:00:00 6.9 2 Norte 4 Sudoeste 0 926.1 0 87
2020-02-12 20:00:00 8.5 2 Noroeste 13 Sudoeste 0 926.4 0.3 82
2020-02-12 19:00:00 10.6 6 Sudoeste 19 Sudoeste 0 926.5 -0.1 75
2020-02-12 18:00:00 12.3 8 Sudoeste 17 Sudoeste 0 926.1 -1.1 63
2020-02-12 17:00:00 13.6 6 Sur 14 Sudoeste 0 926.1 -2 60
2020-02-12 16:00:00 13.7 4 Sur 12 Sudoeste 0 926.6 -2.1 58
2020-02-12 15:00:00 13.5 4 Sur 12 Este 0 927.2 -2 62
2020-02-12 14:00:00 11.2 3 Norte 11 Nordeste 0 928.1 -1.1 71
2020-02-12 13:00:00 11.1 6 Nordeste 12 Nordeste 0 928.7 -0.5 73
2020-02-12 12:00:00 9.7 4 Nordeste 13 Sudeste 0 929.2 -0.1 78
2020-02-12 11:00:00 9.2 6 Sudeste 12 Este 0 929.2 0.2 85
2020-02-12 10:00:00 8.4 5 Este 10 Este 0 929.2 0.2 90
2020-02-12 09:00:00 7.5 3 Este 9 Nordeste 0 929.3 0.5 99
2020-02-12 08:00:00 7 3 Este 11 Nordeste 0 929 0.2 96
2020-02-12 07:00:00 7.4 5 Norte 12 Nordeste 0 929 0.2 97
2020-02-12 06:00:00 7.1 5 Nordeste 9 Norte 0 928.8 -0.5 99
2020-02-12 05:00:00 7 0 Calma 14 Este 0 928.8 -0.7 99
2020-02-12 04:00:00 7.2 0 Calma 11 Norte 0 928.8 -0.8 98
2020-02-12 03:00:00 7 3 Nordeste 11 Nordeste 0 929.3 0.4 96
2020-02-12 02:00:00 8.3 7 Nordeste 15 Nordeste 0 929.5 -0.4 89
2020-02-12 01:00:00 8.4 7 Norte 14 Nordeste 0 929.6 -0.6 93
2020-02-12 00:00:00 8.2 10 Sudeste 19 Sudeste 0 928.9 -1.3 95
2020-02-11 23:00:00 8 5 Este 15 Nordeste 0 929.9 -0.2 89
2020-02-11 22:00:00 9.1 3 Este 12 Norte 0 930.2 0.2 91
2020-02-11 21:00:00 9.9 0 Calma 10 Oeste 0 930.2 0.5 88
2020-02-11 20:00:00 10.1 2 Nordeste 6 Sudeste 0 930.1 0 86
2020-02-11 19:00:00 10.8 2 Sur 5 Sudeste 0 930 -0.3 82
2020-02-11 18:00:00 12 3 Sur 13 Sudoeste 0 929.7 -0.8 78
2020-02-11 17:00:00 12.6 5 Sur 22 Sudoeste 0 930.1 -0.9 74
2020-02-11 16:00:00 13.1 11 Sudoeste 21 Sudoeste 0 930.3 -1.8 71
2020-02-11 15:00:00 13.5 8 Sudoeste 17 Sur 0 930.5 -2.4 68
2020-02-11 14:00:00 13 3 Sur 13 Sudoeste 0 931 -2 69
2020-02-11 13:00:00 11.6 7 Sudoeste 13 Sudoeste 0 932.1 -0.2 78
2020-02-11 12:00:00 9.7 4 Sur 10 Sudoeste 0 932.9 1.1 82
2020-02-11 11:00:00 8.3 3 Noroeste 9 Noroeste 0 933 1.4 100
2020-02-11 10:00:00 7 3 Sudoeste 13 Sudoeste 0 932.3 0.5 --
2020-02-11 09:00:00 6.6 4 Sudoeste 13 Sudoeste 0 931.8 -0.3 --
2020-02-11 08:00:00 6.6 6 Sudoeste 12 Sudoeste 0 931.6 -0.6 100
2020-02-11 07:00:00 6.8 4 Sudoeste 12 Sudoeste 0 931.8 -0.9 100
2020-02-11 06:00:00 6.9 3 Oeste 14 Sudoeste 0 932.1 -0.9 100
2020-02-11 05:00:00 6.2 2 Oeste 9 Sudoeste 0 932.2 -1.2 100
2020-02-11 04:00:00 6.2 4 Sudoeste 13 Sudoeste 0 932.7 -1.3 99
2020-02-11 03:00:00 6.7 5 Sur 18 Sur 0 933 -1.4 99
2020-02-11 02:00:00 6.4 5 Sur 11 Sur 0 933.4 -1 99
2020-02-11 01:00:00 6.5 5 Sur 14 Sudoeste 0 934 -0.3 98
2020-02-11 00:00:00 7.4 8 Sudoeste 15 Sudoeste 0 934.4 0.1 97
2020-02-10 23:00:00 8.1 8 Sudoeste 15 Sudoeste 0 934.4 0.2 92
2020-02-10 22:00:00 8.1 7 Sudoeste 13 Sudoeste 0 934.3 0.6 89
2020-02-10 21:00:00 8.8 8 Sudoeste 13 Sur 0 934.3 1 86
2020-02-10 20:00:00 10.2 9 Sudoeste 19 Sudoeste 0 934.2 1 82
2020-02-10 19:00:00 11.6 9 Sudoeste 22 Sudoeste 0 933.7 0.6 78
2020-02-10 18:00:00 13.3 14 Sudoeste 31 Sudoeste 0 933.3 0 72
2020-02-10 17:00:00 14.7 16 Sudoeste 33 Sudoeste 0 933.2 -1 67
2020-02-10 16:00:00 15.6 15 Sudoeste 37 Sudoeste 0 933.1 -1.8 64
2020-02-10 15:00:00 14.5 14 Sudoeste 36 Sudoeste 0 933.3 -2.1 72
2020-02-10 14:00:00 13.5 15 Sudoeste 35 Sudoeste 0 934.2 -1.1 76
2020-02-10 13:00:00 13.2 18 Sudoeste 37 Sudoeste 0 934.9 -0.1 77
2020-02-10 12:00:00 12.3 17 Sudoeste 31 Sudoeste 0 935.4 0.8 83
2020-02-10 11:00:00 11 9 Sudoeste 32 Oeste 0 935.3 1.1 87
2020-02-10 10:00:00 10.3 13 Sudoeste 30 Sudoeste 0 935 1.2 94
2020-02-10 09:00:00 9.5 11 Sudoeste 27 Sudoeste 0 934.6 0.9 98
2020-02-10 08:00:00 9.4 13 Sudoeste 38 Sudoeste 0 934.2 0.5 98
2020-02-10 07:00:00 9.3 17 Sudoeste 44 Sudoeste 0 933.8 -0.1 97
2020-02-10 06:00:00 9.2 15 Sudoeste 39 Sudoeste 0 933.7 -0.2 98
2020-02-10 05:00:00 9.2 13 Sudoeste 37 Sudoeste 0 933.7 -0.1 98
2020-02-10 04:00:00 9.1 17 Sudoeste 39 Sudoeste 0 933.9 0.1 95
2020-02-10 03:00:00 9.2 16 Sudoeste 34 Sudoeste 0 933.9 -0.2 89
2020-02-10 02:00:00 9.1 14 Sudoeste 30 Sudoeste 0 933.8 -0.3 88
2020-02-10 01:00:00 9.2 14 Sudoeste 33 Sudoeste 0 933.8 -0.1 87
2020-02-10 00:00:00 9.3 14 Sudoeste 29 Sudoeste 0 934.1 0.6 86
2020-02-09 23:00:00 9.5 14 Sudoeste 27 Sudoeste 0 934.1 0.7 85
2020-02-09 22:00:00 9.7 11 Sudoeste 24 Sudoeste 0 933.9 1.2 84
2020-02-09 21:00:00 9.8 10 Sudoeste 28 Sur 0 933.5 1.5 84
2020-02-09 20:00:00 10 12 Sudoeste 22 Sudoeste 0 933.4 1.7 83
2020-02-09 19:00:00 10.2 12 Sudoeste 26 Sudoeste 0 932.7 1.2 81
2020-02-09 18:00:00 10.6 10 Sudoeste 31 Sudoeste 0 932 0.2 79
2020-02-09 17:00:00 11.1 9 Sudoeste 28 Sudoeste 0 931.7 -0.3 76
2020-02-09 16:00:00 11.3 7 Sudoeste 25 Sudoeste 0 931.5 -1 78
2020-02-09 15:00:00 10.5 8 Sudoeste 26 Sudoeste 0 931.8 -1.2 79
2020-02-09 14:00:00 10.1 10 Sudoeste 26 Sudoeste 0 932 -0.8 79
2020-02-09 13:00:00 10.3 7 Sudoeste 30 Sudoeste 0 932.5 0.1 80
2020-02-09 12:00:00 9.1 6 Sudoeste 23 Sudoeste 0 933 1.2 --
2020-02-09 11:00:00 7.4 4 Oeste 21 Sudoeste 0 932.8 1.4 --
2020-02-09 10:00:00 6.4 6 Sudoeste 17 Sudoeste 0 932.4 1.4 --
2020-02-09 09:00:00 6 6 Sudoeste 15 Sudoeste 0 931.8 1.3 --
2020-02-09 08:00:00 5.5 9 Sudoeste 18 Sudoeste 0 931.4 0.9 100
2020-02-09 07:00:00 3.8 2 Noroeste 10 Sudoeste 0 931 0.5 100
2020-02-09 06:00:00 4.1 4 Sudoeste 7 Sudoeste 0 930.5 0.3 --
2020-02-09 05:00:00 3.7 4 Sudoeste 13 Sudoeste 0 930.5 0.4 100
2020-02-09 04:00:00 2.6 7 Sudoeste 14 Sudoeste 0 930.5 0.5 --
2020-02-09 03:00:00 0.2 0 Calma 14 Nordeste 0 930.2 -0.1 100
2020-02-09 02:00:00 1.1 2 Sudoeste 11 Sudoeste 0 930.1 -0.2 100
2020-02-09 01:00:00 1.2 0 Calma 8 Sudoeste 0 930 -0.3 99
2020-02-09 00:00:00 2.1 4 Sudoeste 8 Sudoeste 0 930.3 0.6 98
2020-02-08 23:00:00 2.9 4 Sudoeste 6 Sudoeste 0 930.3 0.9 96
2020-02-08 22:00:00 4 3 Sudoeste 8 Sur 0.2 930.3 1.3 89
2020-02-08 21:00:00 5 4 Sur 9 Sur 0 929.7 1.2 88
2020-02-08 20:00:00 5.4 4 Sudeste 9 Sur 0 929.4 1.4 84
2020-02-08 19:00:00 7.7 2 Sur 6 Sudoeste 0 929 1.1 78
2020-02-08 18:00:00 10.2 5 Sudoeste 16 Sudoeste 0 928.5 1.2 68
2020-02-08 17:00:00 11.5 2 Oeste 12 Oeste 0 928 0.7 62
2020-02-08 16:00:00 10.8 4 Oeste 14 Oeste 0 927.9 0.1 72
2020-02-08 15:00:00 10.3 3 Oeste 18 Sudoeste 0 927.3 -0.6 77
2020-02-08 14:00:00 10.3 11 Sudoeste 23 Sudoeste 0 927.3 -0.4 80
2020-02-08 13:00:00 9 12 Sudoeste 23 Sudoeste 0 927.8 0.4 87
2020-02-08 12:00:00 8.6 12 Sudoeste 26 Sudoeste 0.6 927.9 0.9 100
2020-02-08 11:00:00 8 9 Sudoeste 25 Sudoeste 0.2 927.7 0.8 100
2020-02-08 10:00:00 7.5 9 Sudoeste 20 Sudoeste 0.2 927.4 0.7 --
2020-02-08 09:00:00 7.1 9 Sudoeste 16 Sudoeste 0.2 927 0.4 --
2020-02-08 08:00:00 6.7 7 Sudoeste 17 Sudoeste 0 926.9 0.3 --
2020-02-08 07:00:00 5.6 3 Sudoeste 6 Sudoeste 0 926.7 -0.1 100
2020-02-08 06:00:00 4.8 2 Oeste 5 Sudoeste 0 926.6 -0.5 100
2020-02-08 05:00:00 4.4 3 Sur 5 Sur 0 926.6 -0.6 100
2020-02-08 04:00:00 4.7 2 Sudoeste 11 Sudoeste 0 926.8 -0.4 100
2020-02-08 03:00:00 3.7 2 Oeste 6 Sudoeste 0 927.1 -0.1 100
2020-02-08 02:00:00 2.8 3 Oeste 6 Oeste 0 927.2 -0.1 100
2020-02-08 01:00:00 2.7 2 Noroeste 4 Norte 0 927.2 0 98
2020-02-08 00:00:00 3.7 0 Calma 7 Sudoeste 0 927.2 -0.1 96
2020-02-07 23:00:00 4.7 3 Sudoeste 5 Sudoeste 0 927.3 0 91
2020-02-07 22:00:00 4.9 0 Calma 3 Sudeste 0 927.2 0.2 87
2020-02-07 21:00:00 6.5 0 Calma 5 Sudeste 0 927.3 0.5 84
2020-02-07 20:00:00 8.6 0 Calma 5 Sudoeste 0 927.3 0.7 79
2020-02-07 19:00:00 9.5 3 Sudoeste 12 Sudoeste 0 927 0.5 75
2020-02-07 18:00:00 10.8 5 Sudoeste 16 Sudoeste 0 926.8 -0.1 69
2020-02-07 17:00:00 11.6 5 Sudoeste 15 Sudoeste 0 926.6 -0.7 65
2020-02-07 16:00:00 12.3 5 Oeste 21 Sudoeste 0 926.5 -1.5 64
2020-02-07 15:00:00 11.8 9 Sudoeste 21 Sudoeste 0 926.9 -1.7 66
2020-02-07 14:00:00 10.2 8 Sudoeste 14 Sudoeste 0 927.3 -1.1 74
2020-02-07 13:00:00 8.7 5 Sudoeste 12 Sudoeste 0 928 0.3 78
2020-02-07 12:00:00 6.8 4 Sudoeste 10 Sudoeste 0 928.6 1.4 82
2020-02-07 11:00:00 6 3 Sur 50 Sudoeste 0 928.4 1.5 84
2020-02-07 10:00:00 3.6 3 Este 9 Nordeste 0 927.7 0.9 100
2020-02-07 09:00:00 0.4 0 Calma 4 Norte 0 927.2 0.4 --
2020-02-07 08:00:00 0.9 0 Calma 13 Nordeste 0 926.9 0.3 --
2020-02-07 07:00:00 0.6 2 Norte 14 Nordeste 0 926.8 0.1 --
2020-02-07 06:00:00 0.4 0 Calma 4 Noroeste 0 926.8 -0.1 --
2020-02-07 05:00:00 0.4 0 Calma 4 Norte 0 926.6 -0.4 100
2020-02-07 04:00:00 0.8 2 Norte 4 Norte 0 926.7 -0.6 100
2020-02-07 03:00:00 0.6 0 Calma 3 Noroeste 0 926.9 -0.4 100
2020-02-07 02:00:00 0.9 0 Calma 3 Oeste 0 927 -0.1 99
2020-02-07 01:00:00 1.1 0 Calma 4 Noroeste 0 927.3 0.3 98
2020-02-07 00:00:00 1.5 0 Calma 4 Noroeste 0 927.3 0.4 94
2020-02-06 23:00:00 2.3 2 Norte 13 Noroeste 0 927.1 0.4 89
2020-02-06 22:00:00 3 0 Calma 3 Norte 0 927 0.4 87
2020-02-06 21:00:00 4.2 0 Calma 2 Norte 0 926.9 0.5 85
2020-02-06 20:00:00 5.8 0 Calma 3 Norte 0 926.7 0.5 82
2020-02-06 19:00:00 8.2 0 Calma 4 Sudoeste 0 926.6 0.5 73
2020-02-06 18:00:00 10.7 4 Sudoeste 13 Sudoeste 0 926.4 -0.1 65
2020-02-06 17:00:00 11.2 3 Sudoeste 10 Sudoeste 0 926.2 -1.1 59
2020-02-06 16:00:00 12 3 Oeste 14 Sudoeste 0 926.1 -2.1 54
2020-02-06 15:00:00 12.8 8 Sudoeste 16 Sur 0 926.5 -2.2 52
2020-02-06 14:00:00 11.2 6 Sur 13 Sur 0 927.3 -1.1 57
2020-02-06 13:00:00 9.5 6 Sur 14 Sudoeste 0 928.2 -0.2 57
2020-02-06 12:00:00 7.8 5 Sudoeste 10 Sudoeste 0 928.7 0.7 61
2020-02-06 11:00:00 5.8 2 Sudoeste 6 Este 0 928.4 0.8 70
2020-02-06 10:00:00 2.2 0 Calma 4 Noroeste 0 928.4 0.9 97
2020-02-06 09:00:00 -1.8 0 Calma 3 Oeste 0 928 0.3 100
2020-02-06 08:00:00 -2.3 0 Calma 4 Nordeste 0 927.6 -0.2 99
2020-02-06 07:00:00 -2.2 0 Calma 5 Nordeste 0 927.5 -0.5 97
2020-02-06 06:00:00 -2.1 2 Sudeste 4 Sudeste 0 927.7 -0.5 90
2020-02-06 05:00:00 -1.1 0 Calma 7 Nordeste 0 927.8 -0.5 88
2020-02-06 04:00:00 -0.7 2 Este 8 Nordeste 0 928 -0.8 89
2020-02-06 03:00:00 -0.9 2 Nordeste 8 Nordeste 0 928.2 -1 89
2020-02-06 02:00:00 -0.4 2 Nordeste 6 Este 0 928.3 -1.5 88
2020-02-06 01:00:00 0.5 3 Nordeste 12 Norte 0 928.8 -0.9 86
2020-02-06 00:00:00 0.6 5 Norte 10 Norte 0 929.2 -0.5 87
2020-02-05 23:00:00 1.7 2 Norte 18 Nordeste 0 929.8 0.1 81
2020-02-05 22:00:00 2.5 9 Nordeste 17 Nordeste 0 929.7 0.2 80
2020-02-05 21:00:00 3 5 Nordeste 14 Este 0 929.7 0.2 78
2020-02-05 20:00:00 4.3 5 Nordeste 14 Este 0 929.7 -0.3 72
2020-02-05 19:00:00 6.4 5 Este 15 Este 0 929.5 -1.1 62
2020-02-05 18:00:00 8.9 7 Este 21 Nordeste 0 929.5 -1.6 53
2020-02-05 17:00:00 10.8 10 Este 25 Este 0 930 -2.2 41
2020-02-05 16:00:00 11.1 11 Este 23 Este 0 930.6 -2.7 41
2020-02-05 15:00:00 10.4 11 Este 27 Nordeste 0 931.1 -3.3 54
2020-02-05 14:00:00 9 11 Nordeste 31 Nordeste 0 932.2 -2.3 61
2020-02-05 13:00:00 8.1 10 Nordeste 27 Nordeste 0 933.3 -1.2 67
2020-02-05 12:00:00 6.9 12 Nordeste 29 Este 0 934.4 -0.2 71
2020-02-05 11:00:00 5.4 11 Nordeste 32 Nordeste 0 934.5 0 76
2020-02-05 10:00:00 3.2 9 Nordeste 24 Nordeste 0 934.5 -0.1 82
2020-02-05 09:00:00 1.1 9 Norte 19 Norte 0 934.6 -0.4 86
2020-02-05 08:00:00 0.6 8 Nordeste 16 Nordeste 0 934.5 -0.7 89
2020-02-05 07:00:00 0.6 6 Norte 14 Nordeste 0 934.6 -0.9 90
2020-02-05 06:00:00 0.9 5 Norte 14 Nordeste 0 935 -0.9 90
2020-02-05 05:00:00 1.2 6 Nordeste 20 Nordeste 0 935.2 -0.9 90
2020-02-05 04:00:00 1.4 5 Nordeste 13 Nordeste 0 935.5 -1.2 90
2020-02-05 03:00:00 1.9 5 Este 15 Nordeste 0 935.9 -0.7 89
2020-02-05 02:00:00 2.6 6 Este 21 Este 0 936.1 -0.5 88
2020-02-05 01:00:00 3.2 8 Este 17 Este 0 936.7 0.3 89
2020-02-05 00:00:00 3.6 6 Este 15 Nordeste 0 936.6 0.3 90
2020-02-04 23:00:00 4.4 4 Nordeste 21 Nordeste 0 936.6 0.3 88
2020-02-04 22:00:00 5.5 12 Nordeste 23 Nordeste 0 936.4 0.8 86
2020-02-04 21:00:00 5.9 5 Nordeste 15 Este 0 936.3 1.2 88
2020-02-04 20:00:00 7.5 6 Nordeste 15 Este 0 936.3 1.6 84
2020-02-04 19:00:00 9.5 8 Nordeste 23 Sudeste 0 935.6 0.8 79
2020-02-04 18:00:00 11.7 9 Este 21 Nordeste 0 935.1 0 75
2020-02-04 12:00:00 9.1 7 Este 15 Este 0 936.1 0.5 100
2020-02-04 11:00:00 8.3 4 Este 11 Sudeste 0 935.8 1.1 --
2020-02-04 10:00:00 7.6 4 Este 13 Nordeste 0 935.9 1.4 --
2020-02-04 09:00:00 7 3 Norte 12 Nordeste 0 935.6 1 --
2020-02-04 08:00:00 7.1 4 Noroeste 9 Noroeste 0 934.7 0.1 --
2020-02-04 07:00:00 7.3 4 Noroeste 8 Sur 0 934.5 -0.6 --
2020-02-04 06:00:00 7.5 3 Sur 9 Sudeste 0 934.6 0.1 --
2020-02-04 05:00:00 7.3 4 Nordeste 12 Nordeste 0 934.6 -0.1 --
2020-02-04 04:00:00 6.9 6 Norte 12 Norte 0 935.1 0 --
2020-02-04 03:00:00 7.3 3 Oeste 9 Sudoeste 0 934.5 -0.4 100
2020-02-04 02:00:00 7.8 4 Oeste 9 Sudoeste 0 934.7 -0.1 100
2020-02-04 01:00:00 8.1 6 Sudoeste 13 Sudoeste 0 935.1 0.8 100
2020-02-04 00:00:00 8.3 5 Sudoeste 11 Sur 0 934.9 0.8 100
2020-02-03 23:00:00 9.2 2 Sudoeste 12 Noroeste 0 934.8 0.6 100
2020-02-03 22:00:00 9.4 0 Calma 7 Noroeste 0 934.3 0.6 100
2020-02-03 21:00:00 9.3 3 Noroeste 12 Sudoeste 0 934.1 1.1 99
2020-02-03 20:00:00 9.6 4 Oeste 11 Sudoeste 0 934.2 1.1 98
2020-02-03 19:00:00 10.4 3 Sudoeste 19 Oeste 0 933.7 0.2 91
2020-02-03 18:00:00 11.7 13 Sudoeste 28 Sudoeste 0 933 -0.6 86
2020-02-03 17:00:00 15.3 10 Sudoeste 21 Sudoeste 0 933.1 -1.3 75
2020-02-03 16:00:00 15.7 12 Sudoeste 22 Sudoeste 0 933.5 -1.6 74
2020-02-03 15:00:00 13.8 8 Sudoeste 17 Sudoeste 0 933.6 -2.2 84
2020-02-03 14:00:00 11.7 6 Sudoeste 13 Sudoeste 0 934.4 -1.3 --
2020-02-03 13:00:00 9.9 3 Noroeste 13 Noroeste 0 935.1 -0.7 --
2020-02-03 12:00:00 8 4 Noroeste 8 Noroeste 0 935.8 0.2 --
2020-02-03 11:00:00 6.9 3 Norte 8 Nordeste 0 935.7 0.4 --
2020-02-03 10:00:00 5.7 4 Nordeste 8 Nordeste 0 935.8 0.7 --
2020-02-03 09:00:00 5.1 4 Nordeste 9 Nordeste 0 935.6 0.2 --
2020-02-03 08:00:00 4.7 0 Calma 12 Oeste 0.2 935.3 -0.2 --
2020-02-03 07:00:00 4.5 2 Nordeste 4 Nordeste 0 935.1 -0.5 --
2020-02-03 06:00:00 4.3 0 Calma -- -- 0 935.4 -0.6 --
2020-02-03 05:00:00 3.9 0 Calma 4 Nordeste 0 935.5 -0.5 100
2020-02-03 04:00:00 4.3 2 Norte 5 Nordeste 0 935.6 -0.5 100
2020-02-03 03:00:00 5 2 Nordeste 5 Este 0 936 0.2 100
2020-02-03 02:00:00 4.9 0 Calma 4 Norte 0 936 0.3 100
2020-02-03 01:00:00 5.8 2 Norte 5 Norte 0 936.1 0.6 99
2020-02-03 00:00:00 6.4 2 Sudoeste 6 Sur 0 935.8 0.3 98
2020-02-02 23:00:00 7.3 3 Norte 10 Sudoeste 0 935.7 0.6 98
2020-02-02 22:00:00 8.4 4 Sudoeste 7 Sudoeste 0 935.5 0.9 97
2020-02-02 21:00:00 8.8 0 Calma 3 Este 0 935.5 1.6 89
2020-02-02 20:00:00 10 3 Nordeste 4 Nordeste 0 935.1 1.6 87
2020-02-02 19:00:00 11.5 0 Calma 4 Oeste 0 934.6 1 84
2020-02-02 18:00:00 13.3 0 Calma 13 Sudeste 0 933.9 0.4 78
2020-02-02 17:00:00 15.3 5 Sudoeste 21 Sudoeste 0 933.5 -0.5 70
2020-02-02 16:00:00 15.9 5 Oeste 17 Sudoeste 0 933.6 -0.6 71
2020-02-02 15:00:00 15.7 8 Sudoeste 24 Sudoeste 0 933.5 -0.7 74
2020-02-02 14:00:00 13.8 8 Sudoeste 14 Sudoeste 0 934 0.4 81
2020-02-02 13:00:00 14.1 7 Sudoeste 28 Sudoeste 0 934.2 0.7 81
2020-02-02 12:00:00 14.2 8 Sudoeste 30 Sudoeste 0 934.2 1.2 80
2020-02-02 11:00:00 12.8 11 Sudoeste 25 Sudoeste 0 933.6 0.7 87
2020-02-02 10:00:00 11.6 10 Sudoeste 23 Sur 0 933.5 1 90
2020-02-02 09:00:00 10.5 10 Sudoeste 20 Sudoeste 0 933 0.9 100
2020-02-02 08:00:00 10.2 9 Sudoeste 18 Sudoeste 0 932.9 1 100
2020-02-02 07:00:00 10.1 3 Oeste 18 Sudoeste 0 932.5 0.6 100
2020-02-02 06:00:00 10 5 Sudoeste 16 Sudoeste 0 932.1 0.3 100
2020-02-02 05:00:00 10.1 2 Oeste 9 Oeste 0 931.9 0.2 100
2020-02-02 04:00:00 10 4 Sudoeste 15 Sudoeste 0 931.9 -0.2 100
2020-02-02 03:00:00 9.8 8 Sudoeste 18 Sudoeste 0 931.8 0.1 100
2020-02-02 02:00:00 10.2 6 Sudoeste 20 Sudoeste 0 931.7 0.1 100
2020-02-02 01:00:00 10.1 8 Sudoeste 21 Oeste 0 932.1 0.8 100
2020-02-02 00:00:00 10 4 Sudoeste 16 Sudoeste 0 931.7 0.6 99
2020-02-01 23:00:00 9.6 5 Oeste 16 Sur 0 931.6 1.1 98
2020-02-01 22:00:00 10.3 7 Sudoeste 25 Sudoeste 0 931.3 1.3 94
2020-02-01 21:00:00 10.8 13 Sudoeste 23 Sudoeste 0 931.1 1.7 90
2020-02-01 20:00:00 11.3 11 Sudoeste 21 Sudoeste 0 930.5 1.3 87
2020-02-01 19:00:00 12.2 9 Sudoeste 23 Sudoeste 0 930 0.8 84
2020-02-01 18:00:00 13.8 12 Sudoeste 35 Sudoeste 0 929.4 0.4 79
2020-02-01 17:00:00 15.3 13 Sudoeste 29 Sudoeste 0 929.2 -0.5 74
2020-02-01 16:00:00 15.8 5 Sudoeste 28 Sudoeste 0 929.2 -0.4 75
2020-02-01 15:00:00 15.3 10 Sudoeste 27 Sudoeste 0 929 -0.7 80
2020-02-01 14:00:00 14.6 4 Oeste 30 Sudoeste 0 929.7 0.3 83
2020-02-01 13:00:00 13.3 7 Sudoeste 21 Sudoeste 0 929.6 1.2 88
2020-02-01 12:00:00 13 8 Sudoeste 22 Sudoeste 0 929.7 2.4 91
2020-02-01 11:00:00 11.9 5 Oeste 21 Oeste 0 929.4 2.9 --
2020-02-01 10:00:00 11 7 Sudoeste 23 Sudoeste 0 928.4 2.8 100
2020-02-01 09:00:00 10.7 6 Sudoeste 27 Oeste 0 927.3 1.7 100
2020-02-01 08:00:00 10.7 8 Sudoeste 25 Sudoeste 0 926.5 1.6 100
2020-02-01 07:00:00 10.8 7 Sudoeste 23 Sudoeste 0 925.6 0.9 100
2020-02-01 06:00:00 10.9 8 Sudoeste 26 Sudoeste 0 925.6 1.1 100
2020-02-01 05:00:00 11.1 6 Oeste 30 Sudoeste 0 924.9 0.2 99
2020-02-01 04:00:00 11.3 12 Sudoeste 40 Sudoeste 0 924.7 -0.2 100
2020-02-01 03:00:00 11.1 19 Sudoeste 44 Sudoeste 0 924.5 -0.7 100
2020-02-01 02:00:00 10.8 18 Sudoeste 41 Sudoeste 0 924.7 -1.2 100
2020-02-01 01:00:00 10.3 17 Sudoeste 34 Sudoeste 0.4 924.9 -1.3 99
2020-02-01 00:00:00 10.4 13 Sudoeste 28 Sudoeste 1.2 925.2 -0.9 99
2020-01-31 23:00:00 10.7 11 Sudoeste 33 Sudoeste 0.6 925.9 -0.2 97
2020-01-31 22:00:00 10.7 13 Sudoeste 33 Sudoeste 0 926.2 0.1 98
2020-01-31 21:00:00 10.7 15 Sudoeste 26 Sudoeste 0 926.1 -0.2 99
2020-01-31 20:00:00 10.6 12 Sudoeste 25 Sudoeste 0 926.1 -0.4 95
2020-01-31 19:00:00 10.5 8 Sudoeste 22 Sudoeste 0 926.1 -0.4 89
2020-01-31 18:00:00 11.3 9 Sudoeste 21 Sudoeste 0 926.3 -0.8 87
2020-01-31 17:00:00 11.6 14 Sudoeste 27 Sudoeste 0 926.5 -1.1 85
2020-01-31 16:00:00 11.7 13 Sudoeste 25 Sudoeste 0 926.5 -1.5 88
2020-01-31 15:00:00 11.4 9 Sudoeste 25 Sudoeste 0 927.1 -1.3 97
2020-01-31 14:00:00 11.3 6 Sudoeste 22 Sudoeste 0.2 927.6 -1 99
2020-01-31 13:00:00 11 10 Sudoeste 25 Sudoeste 0 928 -0.4 99
2020-01-31 12:00:00 10.9 6 Sudoeste 18 Sudoeste 0 928.4 0.3 --
2020-01-31 11:00:00 10.3 6 Sudoeste 14 Sudoeste 0 928.6 1 --
2020-01-31 10:00:00 9.8 3 Sudoeste 12 Sudoeste 0.2 928.4 1.2 --
2020-01-31 09:00:00 9.4 3 Sudoeste 13 Sudoeste 0 928.1 1.1 --
2020-01-31 08:00:00 9.3 4 Sudoeste 15 Sudoeste 0 927.6 0.5 --
2020-01-31 07:00:00 9.1 3 Oeste 15 Sudoeste 0 927.2 -0.1 --
2020-01-31 06:00:00 9.1 4 Sudoeste 8 Sudoeste 0 927 -0.4 --
2020-01-31 05:00:00 9 2 Oeste 9 Sudoeste 0 927.1 -0.3 --
2020-01-31 04:00:00 9.1 6 Sudoeste 14 Sudoeste 0 927.3 -0.1 --
2020-01-31 03:00:00 9.1 4 Sudoeste 12 Sudoeste 0 927.4 0 --
2020-01-31 02:00:00 9.1 3 Oeste 19 Sudoeste 0 927.4 0 --
2020-01-31 01:00:00 9.1 7 Sudoeste 22 Sudoeste 0.2 927.4 0 100
2020-01-31 00:00:00 9 8 Sudoeste 20 Sudoeste 0 927.4 0.3 100
2020-01-30 23:00:00 8.9 9 Sudoeste 28 Sudoeste 0.2 927.4 0.5 100
2020-01-30 22:00:00 8.8 11 Sudoeste 23 Sudoeste 0 927.4 0.7 100
2020-01-30 21:00:00 8.6 10 Sudoeste 24 Sudoeste 0.2 927.1 0.6 100
2020-01-30 20:00:00 8.5 13 Sudoeste 25 Sudoeste 0 926.9 0.5 99
2020-01-30 19:00:00 8.5 11 Sudoeste 25 Sudoeste 0.4 926.7 0.4 99
2020-01-30 18:00:00 8.6 10 Sudoeste 24 Sudoeste 0 926.5 0.2 96
2020-01-30 17:00:00 9 10 Sudoeste 29 Sudoeste 0 926.4 -0.5 88
2020-01-30 16:00:00 9.5 18 Sudoeste 36 Sudoeste 0 926.3 -1 83
2020-01-30 15:00:00 9.3 13 Sudoeste 39 Sudoeste 0 926.3 -1.2 84
2020-01-30 14:00:00 9.2 12 Sudoeste 33 Sudoeste 0 926.9 -0.8 83
2020-01-30 13:00:00 9.9 14 Sudoeste 36 Sudoeste 0 927.3 0.1 82
2020-01-30 12:00:00 10.1 13 Sudoeste 35 Sudoeste 0 927.5 0.6 80
2020-01-30 11:00:00 8.5 13 Sudoeste 30 Sudoeste 0 927.7 1.1 85
2020-01-30 10:00:00 8.2 11 Sudoeste 25 Sudoeste 0.2 927.2 0.9 90
2020-01-30 09:00:00 7.4 12 Sudoeste 31 Sudoeste 0 926.9 0.8 92
2020-01-30 08:00:00 7.9 11 Sudoeste 28 Sudoeste 0 926.6 0.6 98
2020-01-30 07:00:00 8.1 11 Sudoeste 30 Sudoeste 0 926.3 -0.2 98
2020-01-30 06:00:00 8.1 14 Sudoeste 32 Sudoeste 0 926.1 -0.6 98
2020-01-30 05:00:00 8 12 Sudoeste 33 Sudoeste 0 926 -0.7 99
2020-01-30 04:00:00 8.3 13 Sudoeste 31 Sudoeste 0 926.5 -0.4 98
2020-01-30 03:00:00 8.6 14 Sudoeste 35 Sudoeste 0 926.7 -0.2 98
2020-01-30 02:00:00 9 13 Sudoeste 31 Sudoeste 0 926.7 -0.3 99
2020-01-30 01:00:00 9.2 12 Sudoeste 29 Sudoeste 0.2 926.9 0 99
2020-01-30 00:00:00 9.4 12 Sudoeste 27 Sudoeste 0.4 926.9 0.1 99
2020-01-29 23:00:00 9.5 13 Sudoeste 33 Sudoeste 0 927 0.4 99
2020-01-29 22:00:00 9.6 15 Sudoeste 34 Sudoeste 0.2 926.9 0.7 99
2020-01-29 21:00:00 9.7 15 Sudoeste 33 Sudoeste 0 926.8 0.9 99
2020-01-29 20:00:00 9.7 14 Sudoeste 31 Sudoeste 0 926.6 0.6 99
2020-01-29 19:00:00 9.7 13 Sudoeste 30 Sudoeste 0.2 926.2 0.4 99
2020-01-29 18:00:00 9.8 12 Sudoeste 31 Sudoeste 0.4 925.9 -0.1 98
2020-01-29 17:00:00 9.8 13 Sudoeste 30 Sudoeste 0.2 926 -0.5 98
2020-01-29 16:00:00 9.8 15 Sudoeste 37 Sudoeste 0.4 925.8 -1.3 95
2020-01-29 15:00:00 9.6 18 Sudoeste 35 Sudoeste 0.2 926 -1.7 97
2020-01-29 14:00:00 9.6 18 Sudoeste 35 Sudoeste 1 926.5 -1.2 93
2020-01-29 13:00:00 9.6 13 Sudoeste 33 Sudoeste 0.8 927.1 -0.2 95
2020-01-29 12:00:00 9.6 14 Sudoeste 28 Sudoeste 0.2 927.7 0.7 96
2020-01-29 11:00:00 9.4 12 Sudoeste 28 Sudoeste 0.2 927.7 1.1 97
2020-01-29 10:00:00 8.9 11 Sudoeste 25 Sudoeste 0.2 927.3 1 99
2020-01-29 09:00:00 8.6 9 Sudoeste 27 Sudoeste 0 927 1.1 99
2020-01-29 08:00:00 8.5 8 Sudoeste 25 Sudoeste 0 926.6 0.7 99
2020-01-29 07:00:00 8.6 5 Sudoeste 21 Sudoeste 0 926.3 0.3 99
2020-01-29 06:00:00 8.8 6 Sudoeste 19 Oeste 0 925.9 0.3 99
2020-01-29 05:00:00 8.9 6 Sudoeste 22 Sudoeste 0 925.9 0.3 99
2020-01-29 04:00:00 8.9 2 Oeste 25 Oeste 0 926 0.5 100
2020-01-29 03:00:00 9.1 4 Oeste 19 Sudoeste 0 925.6 0.1 100
2020-01-29 02:00:00 9.2 4 Oeste 24 Sudoeste 0 925.6 0.1 100
2020-01-29 01:00:00 9.2 4 Sudoeste 21 Sudoeste 0 925.5 0 100
2020-01-29 00:00:00 9.1 6 Sudoeste 18 Sudoeste 0 925.5 0 100
2020-01-28 23:00:00 8.9 4 Sudoeste 17 Sudoeste 0 925.5 0.2 99
2020-01-28 22:00:00 7.5 2 Sudoeste 4 Sudoeste 0 925.5 0.3 98
2020-01-28 21:00:00 7.4 2 Sur 5 Sudoeste 0 925.5 0.4 97
2020-01-28 20:00:00 7.5 0 Calma 6 Sudoeste 0 925.3 0.4 89
2020-01-28 19:00:00 8.2 0 Calma 3 Sudoeste 0.2 925.2 0.4 87
2020-01-28 18:00:00 9.1 0 Calma 8 Sudoeste 0 925.1 0.3 84
2020-01-28 17:00:00 9.7 3 Oeste 10 Sudoeste 0 924.9 -0.4 80
2020-01-28 16:00:00 10.1 3 Oeste 10 Oeste 0 924.8 -1 77
2020-01-28 15:00:00 9.8 4 Oeste 16 Oeste 0 924.8 -1.2 74
2020-01-28 14:00:00 9.7 4 Oeste 13 Noroeste 0 925.3 -0.2 73
2020-01-28 13:00:00 9.2 3 Oeste 13 Oeste 0 925.8 0.6 75
2020-01-28 12:00:00 8.6 3 Oeste 10 Oeste 0 926 1.5 77
2020-01-28 11:00:00 7.6 3 Oeste 11 Oeste 0 925.5 1.9 85
2020-01-28 10:00:00 6 3 Sudoeste 9 Sudoeste 0 925.2 1.7 96
2020-01-28 09:00:00 6.3 0 Calma 12 Sudoeste 0 924.5 1.5 99
2020-01-28 08:00:00 7.7 4 Oeste 16 Noroeste 0 923.6 0.5 99
2020-01-28 07:00:00 7.8 5 Oeste 16 Oeste 0 923.5 0.9 99
2020-01-28 06:00:00 7.8 6 Oeste 28 Sudoeste 0 923 0.4 99
2020-01-28 05:00:00 7.9 8 Sudoeste 33 Sudoeste 0 923.1 0.6 99
2020-01-28 04:00:00 7.7 12 Sudoeste 30 Sudoeste 0 922.6 0.6 98
2020-01-28 03:00:00 8 9 Sudoeste 40 Sudoeste 0 922.6 0.5 98
2020-01-28 02:00:00 8.1 16 Sudoeste 49 Sur 0 922.5 0.2 98
2020-01-28 01:00:00 7.9 20 Sudoeste 46 Sudoeste 0.2 922 -0.6 98
2020-01-28 00:00:00 7.8 20 Sudoeste 48 Sudoeste 0 922.1 -0.3 98
2020-01-27 23:00:00 7.6 19 Sudoeste 39 Sudoeste 0 922.3 0.3 90
2020-01-27 22:00:00 7.7 19 Sudoeste 37 Sudoeste 0 922.6 0.9 87
2020-01-27 21:00:00 7.7 15 Sudoeste 44 Sudoeste 0 922.4 0.9 83
2020-01-27 20:00:00 8.2 22 Sudoeste 52 Sudoeste 0 922 0.5 87
2020-01-27 19:00:00 8.2 19 Sudoeste 41 Sudoeste 0 921.7 0.2 91
2020-01-27 18:00:00 8.3 20 Sudoeste 43 Sudoeste 0 921.5 -0.2 89
2020-01-27 17:00:00 8.8 16 Sudoeste 39 Sudoeste 0 921.5 -0.7 89
2020-01-27 16:00:00 8.5 15 Sudoeste 46 Sudoeste 0.2 921.5 -1.6 97
2020-01-27 15:00:00 7.9 17 Sudoeste 52 Sudoeste 0.2 921.7 -2.3 98
2020-01-27 14:00:00 7.6 19 Sudoeste 41 Sudoeste 0.2 922.2 -2.1 90
2020-01-27 13:00:00 6.9 20 Sudoeste 41 Sudoeste 0 923.1 -1 88
2020-01-27 12:00:00 6.4 19 Sudoeste 44 Sudoeste 0.2 924 -0.5 87
2020-01-27 11:00:00 6.1 22 Sudoeste 43 Sudoeste 0.2 924.3 0 86
2020-01-27 10:00:00 5.2 18 Sudoeste 36 Sudoeste 0 924.1 -0.7 88
2020-01-27 09:00:00 4.7 14 Sudoeste 33 Sudoeste 0 924.5 -0.7 88
2020-01-27 08:00:00 4.6 14 Sudoeste 30 Sudoeste 0 924.3 -1.3 89
2020-01-27 07:00:00 4.5 12 Sudoeste 24 Sur 0 924.8 -1.5 90
2020-01-27 06:00:00 4.6 12 Sudoeste 22 Sudoeste 0 925.2 -1.1 89
2020-01-27 05:00:00 4.7 10 Sudoeste 26 Sudoeste 0 925.6 -1.1 89
2020-01-27 04:00:00 5.1 15 Sudoeste 33 Sudoeste 0 926.3 -0.8 89
2020-01-27 03:00:00 4.9 14 Sudoeste 29 Sudoeste 0 926.3 -0.9 90
2020-01-27 02:00:00 4.5 12 Sudoeste 24 Sudoeste 0 926.7 -0.6 95
2020-01-27 01:00:00 3.8 10 Sudoeste 20 Sudoeste 0 927.1 0 93
2020-01-27 00:00:00 3.9 4 Sudoeste 9 Oeste 0 927.2 0 98
2020-01-26 23:00:00 3.8 4 Sudoeste 12 Sudoeste 0 927.3 0 98
2020-01-26 22:00:00 3.5 3 Oeste 10 Sudoeste 0 927.1 0 99
2020-01-26 21:00:00 3.1 2 Sudoeste 5 Sudeste 0 927.2 0.3 98
2020-01-26 20:00:00 3.1 2 Sudoeste 5 Sudoeste 0 927.3 0.6 97
2020-01-26 19:00:00 3.1 0 Calma 7 Sudoeste 0 927.1 0.2 95
2020-01-26 18:00:00 3.1 2 Oeste 23 Sur 0 926.9 0.1 96
2020-01-26 17:00:00 2.7 12 Sudoeste 20 Sudoeste 0 926.7 -0.4 99
2020-01-26 16:00:00 2.5 8 Sudoeste 18 Sudoeste 0 926.9 -0.5 100
2020-01-26 15:00:00 2.2 7 Sudoeste 17 Sudoeste 0 926.8 -0.6 100
2020-01-26 14:00:00 1.9 7 Sudoeste 17 Sudoeste 0 927.1 -0.1 100
2020-01-26 13:00:00 2 6 Sudoeste 15 Sudoeste 0 927.4 0.6 100
2020-01-26 12:00:00 1.6 6 Sudoeste 16 Sur 0 927.4 1.4 --
2020-01-26 11:00:00 1.2 5 Sudoeste 11 Sudoeste 0 927.2 1.8 --
2020-01-26 10:00:00 1 5 Sudoeste 12 Sudoeste 0 926.8 1.9 --
2020-01-26 09:00:00 0.9 4 Sudoeste 8 Sudoeste 0 926 1.7 --
2020-01-26 08:00:00 0.1 3 Sudoeste 5 Sudoeste 0 925.4 1.3 --
2020-01-26 07:00:00 -0.6 3 Sudoeste 5 Sudoeste 0 924.9 1.2 100
2020-01-26 06:00:00 -0.9 0 Calma 6 Sudoeste 0 924.3 1 100
2020-01-26 05:00:00 -1 5 Sudoeste 8 Sur 0 924.1 0.7 100
2020-01-26 04:00:00 -0.6 2 Noroeste 5 Noroeste 0 923.7 0.4 99
2020-01-26 03:00:00 -0.1 0 Calma 3 Sur 0 923.3 0.2 97
2020-01-26 02:00:00 1 0 Calma 4 Noroeste 0 923.4 0.4 96
2020-01-26 01:00:00 2.2 0 Calma 4 Sudoeste 0 923.3 0.6 93
2020-01-26 00:00:00 3.6 0 Calma 6 Noroeste 0 923.1 0.8 96
2020-01-25 23:00:00 3.7 4 Norte 10 Norte 0 923 1 97
2020-01-25 22:00:00 4 4 Nordeste 9 Norte 0 922.7 1.3 89
2020-01-25 21:00:00 5 5 Norte 11 Nordeste 0 922.3 1.5 86
2020-01-25 20:00:00 5.2 7 Norte 12 Norte 0.2 922 1.5 83
2020-01-25 19:00:00 5.7 7 Norte 14 Norte 0 921.4 1.1 83
2020-01-25 18:00:00 6.7 0 Calma 7 Este 0 920.8 0.2 79
2020-01-25 17:00:00 7 4 Este 13 Este 0 920.5 -0.7 77
2020-01-25 16:00:00 7.2 6 Nordeste 14 Este 0 920.3 -1.5 75
2020-01-25 15:00:00 7.2 5 Este 14 Este 0 920.6 -1.9 74
2020-01-25 14:00:00 7.2 4 Este 10 Este 0 921.2 -1.2 79
2020-01-25 13:00:00 6.8 4 Este 12 Este 0 921.8 -0.3 78
2020-01-25 12:00:00 5.7 5 Este 15 Nordeste 0.2 922.5 0.7 94
2020-01-25 11:00:00 4.3 5 Este 16 Este 0 922.4 0.9 92
2020-01-25 10:00:00 3.7 6 Nordeste 15 Nordeste 0 922.1 0.7 98
2020-01-25 09:00:00 2.7 8 Nordeste 17 Nordeste 0 921.8 0.4 99
2020-01-25 08:00:00 2.7 8 Nordeste 15 Nordeste 0 921.5 -0.2 99
2020-01-25 07:00:00 2.7 5 Nordeste 12 Nordeste 0 921.4 -0.6 99
2020-01-25 06:00:00 3 6 Nordeste 14 Norte 0 921.4 -1 99
2020-01-25 05:00:00 2.9 2 Nordeste 9 Nordeste 0 921.7 -1 98
2020-01-25 04:00:00 3.6 3 Nordeste 15 Este 0 922 -1.1 98
2020-01-25 03:00:00 3.9 3 Nordeste 5 Norte 0 922.4 -0.8 97
2020-01-25 02:00:00 4.4 3 Sudeste 14 Sur 0 922.7 -0.8 95
2020-01-25 01:00:00 4.1 2 Sudeste 6 Este 0 923.1 -0.4 97
2020-01-25 00:00:00 4.3 3 Nordeste 8 Sudeste 0 923.2 -0.5 95
2020-01-24 23:00:00 4.8 0 Calma 6 Este 0 923.5 -0.2 90
2020-01-24 22:00:00 5.1 0 Calma 5 Norte 0 923.5 0.1 89
2020-01-24 21:00:00 5.7 3 Sudeste 8 Sudeste 0 923.7 0.7 87
2020-01-24 20:00:00 6 0 Calma 4 Sudeste 0 923.7 0.6 87
2020-01-24 19:00:00 6.5 0 Calma 3 Sudeste 0 923.4 0.2 85
2020-01-24 18:00:00 7.4 0 Calma 3 Norte 0 923 -0.5 80
2020-01-24 17:00:00 7.8 0 Calma 5 Este 0 923.1 -0.9 77
2020-01-24 16:00:00 8 2 Sudoeste 9 Oeste 0 923.2 -1.6 72
2020-01-24 15:00:00 8.1 0 Calma 6 Oeste 0 923.5 -1.8 72
2020-01-24 14:00:00 6.9 0 Calma 7 Sudoeste 0 924 -1 76
2020-01-24 13:00:00 6.5 4 Sur 10 Sudeste 0 924.8 -0.1 78
2020-01-24 12:00:00 5.5 3 Este 10 Sudeste 0 925.3 1 84
2020-01-24 11:00:00 4.6 3 Nordeste 10 Nordeste 0 925 1 87
2020-01-24 10:00:00 3.7 2 Nordeste 6 Nordeste 0 924.9 1 89
2020-01-24 09:00:00 3.4 4 Nordeste 14 Este 0 924.3 0.7 88
2020-01-24 08:00:00 3.1 6 Nordeste 13 Norte 0 924 0.4 89
2020-01-24 07:00:00 2.8 5 Nordeste 13 Nordeste 0 923.9 0 90
2020-01-24 06:00:00 2.6 4 Nordeste 14 Nordeste 0 923.6 -0.4 90
2020-01-24 05:00:00 2.2 3 Nordeste 9 Nordeste 0 923.6 -0.5 90
2020-01-24 04:00:00 2.7 4 Norte 11 Nordeste 0 923.9 -0.2 90
2020-01-24 03:00:00 3.2 4 Nordeste 11 Nordeste 0 924 -0.2 89
2020-01-24 02:00:00 3.3 3 Nordeste 11 Este 0 924.1 0 93
2020-01-24 01:00:00 3.3 4 Nordeste 14 Nordeste 0 924.1 0.4 96
2020-01-24 00:00:00 3.2 4 Nordeste 14 Nordeste 0 924.2 0.9 97
2020-01-23 23:00:00 2.4 5 Nordeste 12 Nordeste 0 924.1 1.2 99
2020-01-23 22:00:00 1 2 Nordeste 7 Nordeste 0 923.7 1.2 97
2020-01-23 21:00:00 0.9 3 Norte 14 Nordeste 0 923.3 1.3 90
2020-01-23 20:00:00 1.6 2 Nordeste 14 Nordeste 0 922.9 1.1 89
2020-01-23 19:00:00 2.9 2 Norte 13 Este 0 922.5 0.7 86
2020-01-23 18:00:00 5.4 0 Calma 8 Este 0 922 -0.6 80
2020-01-23 17:00:00 6.8 4 Nordeste 8 Nordeste 0 921.8 -1.2 76
2020-01-23 16:00:00 6.9 3 Sudeste 19 Este 0 921.8 -1.9 76
2020-01-23 15:00:00 5.4 5 Este 17 Nordeste 0 922.6 -1.6 81
2020-01-23 14:00:00 5 7 Nordeste 15 Nordeste 0 923 -1.3 85
2020-01-23 13:00:00 3.5 6 Nordeste 18 Norte 0 923.7 -0.3 100
2020-01-23 12:00:00 2.2 9 Norte 21 Nordeste 0 924.2 0.7 100
2020-01-23 11:00:00 1.8 6 Nordeste 22 Este 0 924.3 1 --
2020-01-23 10:00:00 0.1 10 Nordeste 26 Nordeste 0 924 1.1 --
2020-01-23 09:00:00 -0.7 9 Este 17 Este 0 923.5 0.9 --
2020-01-23 08:00:00 -0.1 5 Nordeste 17 Nordeste 0 923.3 0.6 --
2020-01-23 07:00:00 -0.2 5 Nordeste 19 Nordeste 0 922.9 -0.2 100
2020-01-23 06:00:00 0.3 9 Nordeste 18 Nordeste 0 922.6 -0.8 100
2020-01-23 05:00:00 0.6 8 Nordeste 17 Nordeste 0 922.7 -1 99
2020-01-23 04:00:00 1 6 Nordeste 17 Nordeste 0 923.1 -0.9 99
2020-01-23 03:00:00 0.6 4 Nordeste 14 Nordeste 0 923.4 -0.5 95
2020-01-23 02:00:00 1.6 8 Nordeste 15 Este 0 923.7 -0.2 97
2020-01-23 01:00:00 1.8 6 Nordeste 20 Nordeste 0 924 0.2 90
2020-01-23 00:00:00 2.5 9 Nordeste 21 Nordeste 0 923.9 0.2 89
2020-01-22 23:00:00 2.4 6 Nordeste 20 Nordeste 0 923.9 0.4 90
2020-01-22 22:00:00 2.3 10 Nordeste 21 Nordeste 0 923.8 0.7 89
2020-01-22 21:00:00 2.7 6 Nordeste 18 Nordeste 0 923.7 0.6 87
2020-01-22 20:00:00 3.2 8 Nordeste 22 Nordeste 0 923.5 0.6 85
2020-01-22 19:00:00 4.4 8 Nordeste 21 Nordeste 0 923.1 -0.1 80
2020-01-22 18:00:00 6.1 11 Nordeste 50 Nordeste 0 923.1 -0.6 75
2020-01-22 17:00:00 7.8 6 Nordeste 24 Norte 0 922.9 -1.8 68
2020-01-22 16:00:00 8.6 9 Nordeste 24 Nordeste 0 923.2 -2.4 64
2020-01-22 15:00:00 8.8 12 Nordeste 29 Nordeste 0 923.7 -2.4 62
2020-01-22 14:00:00 8.4 13 Nordeste 33 Nordeste 0 924.7 -1.5 67
2020-01-22 13:00:00 8.1 13 Nordeste 35 Este 0 925.6 -0.4 73
2020-01-22 12:00:00 6.5 15 Este 34 Este 0 926.1 0.2 78
2020-01-22 11:00:00 4.9 16 Nordeste 29 Nordeste 0 926.2 0.7 84
2020-01-22 10:00:00 4.1 12 Nordeste 29 Norte 0 926 1.1 86
2020-01-22 09:00:00 3.9 12 Nordeste 32 Nordeste 0 925.9 0.4 87
2020-01-22 08:00:00 4 17 Nordeste 35 Norte 0.2 925.5 -0.4 88
2020-01-22 07:00:00 3.9 15 Nordeste 33 Nordeste 0.4 924.9 -1.2 87
2020-01-22 06:00:00 4 13 Nordeste 33 Nordeste 0.4 925.5 -0.4 87
2020-01-22 05:00:00 4.2 13 Nordeste 30 Nordeste 0 925.9 0.1 84
2020-01-22 04:00:00 4.2 13 Nordeste 41 Este 0 926.1 -0.9 84
2020-01-22 03:00:00 4.1 25 Nordeste 55 Nordeste 0 925.9 -0.6 84
2020-01-22 02:00:00 3.7 24 Nordeste 51 Nordeste 0 925.8 -1 85
2020-01-22 01:00:00 3.4 21 Nordeste 58 Nordeste 0 927 0 86
2020-01-22 00:00:00 3.1 30 Nordeste 62 Nordeste 0 926.5 0.5 85
2020-01-21 23:00:00 2.7 21 Nordeste 49 Nordeste 0 926.8 1.1 84
2020-01-21 22:00:00 2.2 18 Nordeste 63 Nordeste 0 927 0.7 83
2020-01-21 21:00:00 2.6 28 Nordeste 60 Nordeste 0 926 -0.5 81
2020-01-21 20:00:00 2.9 27 Nordeste 64 Nordeste 0 925.7 -0.9 79
2020-01-21 19:00:00 2.4 20 Nordeste 54 Norte 0 926.3 -0.5 83
2020-01-21 18:00:00 2.2 28 Nordeste 72 Nordeste 0 926.5 -0.3 84
2020-01-21 17:00:00 1.9 30 Nordeste 67 Nordeste 0.4 926.6 -1.4 89
2020-01-21 16:00:00 3.2 30 Nordeste 63 Nordeste 0 926.8 -1.3 76
2020-01-21 15:00:00 3.3 27 Nordeste 60 Nordeste 0 926.8 -2.1 76
2020-01-21 14:00:00 4.4 25 Nordeste 73 Nordeste 0 928 -1.9 70
2020-01-21 13:00:00 5 30 Nordeste 70 Nordeste 0 928.1 -1.6 65
2020-01-21 12:00:00 2.9 27 Nordeste 54 Nordeste 0 928.9 -1.7 75
2020-01-21 11:00:00 2.3 26 Nordeste 63 Este 0 929.9 -0.5 72
2020-01-21 10:00:00 2.3 30 Nordeste 60 Nordeste 0 929.7 -0.8 72
2020-01-21 09:00:00 1.5 21 Nordeste 50 Nordeste 0 930.6 0.3 75
2020-01-21 08:00:00 0.8 24 Nordeste 55 Nordeste 0 930.4 -0.8 77
2020-01-21 07:00:00 0.5 19 Nordeste 40 Nordeste 0 930.5 -1.1 77
2020-01-21 06:00:00 0.5 20 Nordeste 46 Nordeste 0 930.3 -1.7 77
2020-01-21 05:00:00 0.5 13 Nordeste 31 Nordeste 0 931.2 -1 76
2020-01-21 04:00:00 0.4 13 Nordeste 40 Nordeste 0 931.6 -0.9 78
2020-01-21 03:00:00 0.5 19 Nordeste 49 Nordeste 0 932 -1.1 78
2020-01-21 02:00:00 0.8 24 Nordeste 57 Nordeste 0 932.2 -0.7 78
2020-01-21 01:00:00 0.6 25 Nordeste 51 Nordeste 0 932.5 -0.7 80
2020-01-21 00:00:00 0.7 22 Nordeste 50 Nordeste 0 933.1 0.2 82
2020-01-20 23:00:00 0.4 23 Nordeste 46 Nordeste 0 932.9 0.6 79
2020-01-20 22:00:00 0.3 26 Nordeste 59 Nordeste 0 933.2 1 79
2020-01-20 21:00:00 0.3 24 Nordeste 61 Nordeste 0 932.9 1.3 78
2020-01-20 20:00:00 0.4 28 Nordeste 60 Nordeste 0 932.3 0.7 73
2020-01-20 19:00:00 0.5 23 Nordeste 53 Nordeste 0 932.2 0.3 71
2020-01-20 18:00:00 0.7 23 Nordeste 58 Nordeste 0 931.6 -0.7 70
2020-01-20 17:00:00 1.3 26 Nordeste 66 Norte 0 931.6 -0.7 65
2020-01-20 16:00:00 1.5 27 Nordeste 64 Nordeste 0 931.9 -0.8 63
2020-01-20 15:00:00 2 27 Nordeste 55 Nordeste 0 932.3 -0.7 62
2020-01-20 14:00:00 2.1 25 Nordeste 72 Nordeste 0 932.3 -1 61
2020-01-20 13:00:00 1.6 28 Nordeste 71 Nordeste 0 932.7 0 57
2020-01-20 12:00:00 1.6 33 Nordeste 81 Nordeste 0 933 0.3 60
2020-01-20 11:00:00 1.3 32 Nordeste 77 Nordeste 0 933.3 1.4 62
2020-01-20 10:00:00 0.7 30 Nordeste 72 Nordeste 0 932.7 1.3 65
2020-01-20 09:00:00 -0.2 31 Nordeste 70 Nordeste 0 932.7 0 71
2020-01-20 08:00:00 -0.2 30 Nordeste 83 Nordeste 0 931.9 -1.3 70
2020-01-20 07:00:00 -0.2 37 Nordeste 80 Nordeste 0 931.4 -2.2 71
2020-01-20 06:00:00 -0.2 27 Nordeste 66 Nordeste 0 932.7 -1 75
2020-01-20 05:00:00 0.4 30 Nordeste 63 Nordeste 0 933.2 -0.5 68
2020-01-20 04:00:00 0.3 23 Nordeste 58 Nordeste 0 933.6 -0.8 67
2020-01-20 03:00:00 0.2 22 Nordeste 80 Nordeste 0 933.7 -0.9 71
2020-01-20 02:00:00 0.6 31 Nordeste 69 Nordeste 0 933.7 -0.8 67
2020-01-20 01:00:00 0.3 24 Nordeste 66 Nordeste 0 934.4 0.4 73
2020-01-20 00:00:00 0.6 28 Nordeste 77 Nordeste 0 934.6 0.7 70
2020-01-19 23:00:00 0.9 35 Nordeste 75 Nordeste 0 934.5 1 71
2020-01-19 22:00:00 1.6 32 Nordeste 82 Nordeste 0 934 1.2 63
2020-01-19 21:00:00 1.8 39 Nordeste 99 Nordeste 0 933.9 1.3 61
2020-01-19 20:00:00 1.6 40 Nordeste 84 Nordeste 0 933.5 0.3 59
2020-01-19 19:00:00 1.6 34 Nordeste 89 Norte 0 932.8 -0.2 64
2020-01-19 18:00:00 2.2 28 Nordeste 85 Norte 0 932.6 -0.1 57
2020-01-19 17:00:00 3.7 36 Nordeste 73 Nordeste 0 933.2 0.9 46
2020-01-19 16:00:00 4.7 38 Nordeste 78 Nordeste 0 933 0.9 46
2020-01-19 15:00:00 5.4 35 Norte 87 Norte 0 932.7 0.6 50
2020-01-19 14:00:00 5.8 44 Norte 89 Norte 0 932.3 0.3 50
2020-01-19 13:00:00 5.9 36 Nordeste 87 Norte 0 932.1 0.5 51
2020-01-19 12:00:00 5.5 40 Nordeste 82 Norte 0 932.1 2.2 52
2020-01-19 11:00:00 4.9 32 Nordeste 64 Nordeste 0 932 2.8 55
2020-01-19 10:00:00 4.4 21 Nordeste 67 Nordeste 0 931.6 3.6 67
2020-01-19 09:00:00 3.8 28 Nordeste 57 Norte 0 929.9 2.4 76
2020-01-19 08:00:00 3.4 14 Nordeste 33 Norte 0 929.2 2.3 81
2020-01-19 07:00:00 3.5 15 Norte 34 Norte 0 928 1.4 85
2020-01-19 06:00:00 3.1 13 Norte 27 Nordeste 0 927.5 1 86
2020-01-19 05:00:00 1.1 8 Norte 14 Norte 0 926.9 0.7 --
2020-01-19 04:00:00 0.6 3 Noroeste 11 Norte 0 926.6 0.4 100
2020-01-19 03:00:00 0.6 0 Calma 10 Norte 0 926.5 1 100
2020-01-19 02:00:00 1.1 3 Noroeste 7 Noroeste 0 926.2 0.9 100
2020-01-19 01:00:00 0.8 3 Norte 17 Norte 0 926.2 1.3 100
2020-01-19 00:00:00 1.8 2 Norte 5 Norte 0 925.5 1 99
2020-01-18 23:00:00 2.4 3 Nordeste 9 Sudeste 0 925.3 1.5 99
2020-01-18 22:00:00 2.6 4 Sudeste 12 Sudeste 0 924.9 1.7 99
2020-01-18 21:00:00 2.5 0 Calma 5 Nordeste 0 924.5 2.1 96
2020-01-18 20:00:00 3.6 0 Calma 11 Oeste 0 923.8 2.4 92
2020-01-18 19:00:00 5.4 0 Calma 7 Sudoeste 0 923.2 1.1 92
2020-01-18 18:00:00 6.2 3 Sudoeste 42 Sudoeste 2.8 922.4 -0.2 88
2020-01-18 17:00:00 9.2 17 Sudoeste 42 Sudoeste 0.2 921.4 -3.1 96
2020-01-18 16:00:00 8.9 18 Sudoeste 44 Sudoeste 1.2 922.1 -4.4 99
2020-01-18 15:00:00 7.8 18 Sudoeste 36 Sur 0.4 922.6 -5.8 99
2020-01-18 14:00:00 7.1 19 Sudoeste 39 Sur 0.2 924.5 -4.9 99
2020-01-18 13:00:00 6.1 13 Sur 22 Sudoeste 0.2 926.5 -3.6 98
2020-01-18 12:00:00 5.3 10 Sur 26 Sudoeste 0 928.4 -2.2 98
2020-01-18 11:00:00 4.6 6 Sudoeste 18 Sur 0 929.4 -1.6 98
2020-01-18 10:00:00 3.3 0 Calma 3 Este 0 930.1 -0.9 90
2020-01-18 09:00:00 2.5 0 Calma 5 Nordeste 0 930.6 -1 90
2020-01-18 08:00:00 2.4 3 Este 8 Sudeste 0 931 -1.4 90
2020-01-18 07:00:00 2.1 2 Este 7 Nordeste 0 931 -1.4 92
2020-01-18 06:00:00 2.4 2 Este 4 Este 0 931.6 -1.7 96
2020-01-18 05:00:00 2.3 0 Calma 9 Sur 0 932.4 -1.1 96
2020-01-18 04:00:00 1.9 0 Calma 4 Norte 0 932.4 -1.6 98
2020-01-18 03:00:00 1.7 0 Calma 13 Norte 0 933.3 -1 97
2020-01-18 02:00:00 1.5 0 Calma 5 Nordeste 0 933.5 -1.2 96
2020-01-18 01:00:00 1.5 0 Calma 15 Este 0 934 -0.9 91
2020-01-18 00:00:00 1.5 0 Calma 4 Sudoeste 0 934.3 -1.1 90